Time;durP1;ratioP1;P1;durP2;ratioP2;P2;SDS_P1;SDS_P2;PMS_P1;PMS_P2;Temp;Humidity;BMP_temperature;BMP_pressure;BME280_temperature;BME280_humidity;BME280_pressure;Samples;Min_cycle;Max_cycle;Signal;HPM_P1;HPM_P2
2023/05/01 00:01:12;;;;;;;;;;;;;;;;;;6139182;28;20247;-79
2023/05/01 00:14:22;;;;;;;;;;;;;;;;;;6089073;29;19925;-78
2023/05/01 00:17:25;;;;;;;;;;;;;;;;;;6116148;28;19926;-79
2023/05/01 00:20:31;;;;;;;;;;;;;;;;;;6144356;28;20025;-78
2023/05/01 00:23:45;;;;;;;;;;;;;;;;;;;;;
2023/05/01 00:26:47;;;;;;;;;;;;;;;;;;6124087;28;20933;-78
2023/05/01 00:29:49;;;;;;;;;;;;;;;;;;6152514;28;19916;-77
2023/05/01 00:32:52;;;;;;;;;;;;;;;;;;6239296;28;19937;-78
2023/05/01 00:35:54;;;;;;;;;;;;;;;;;;6240373;28;20310;-78
2023/05/01 00:42:38;;;;;;;;;;;;;;;;;;6190105;28;20012;-78
2023/05/01 00:45:40;;;;;;;;;;;;;;;;;;6196065;28;19969;-78
2023/05/01 00:52:14;;;;;;;;;;;;;;;;;;6183296;28;19933;-79
2023/05/01 00:55:34;;;;;;;;;;;;;;;;;;6194094;28;20249;-78
2023/05/01 01:02:06;;;;;;;;;;;;;;;;;;6191579;28;20025;-78
2023/05/01 01:08:45;;;;;;;;;;;;;;;;;;6192426;28;19926;-78
2023/05/01 01:11:50;;;;;;;;;;;;;;;;;;6219827;28;19931;-78
2023/05/01 01:15:13;;;;;;;;;;;;;;;;;;6240110;28;20002;-78
2023/05/01 01:18:16;;;;;;;;;;;;;;;;;;6243743;28;20248;-78
2023/05/01 01:21:27;;;;;;;;;;;;;;;;;;6218032;28;19918;-78
2023/05/01 01:24:43;;;;;;;;;;;;;;;;;;6214856;28;20188;-78
2023/05/01 01:28:36;;;;;;;;;;;;;;;;;;;;;
2023/05/01 01:31:44;;;;;;;;;;;;;;;;;;6082100;29;19974;-78
2023/05/01 01:34:49;;;;;;;;;;;;;;;;;;6098757;29;19927;-79
2023/05/01 01:37:59;;;;;;;;;;;;;;;;;;6083443;29;19926;-78
2023/05/01 01:41:02;;;;;;;;;;;;;;;;;;6113349;29;19919;-78
2023/05/01 01:44:15;;;;;;;;;;;;;;;;;;6116402;29;20664;-78
2023/05/01 01:47:17;;;;;;;;;;;;;;;;;;6118359;29;19926;-78
2023/05/01 01:54:32;;;;;;;;;;;;;;;;;;6072956;29;19927;-78
2023/05/01 01:57:35;;;;;;;;;;;;;;;;;;6118475;29;20012;-79
2023/05/01 02:00:41;;;;;;;;;;;;;;;;;;6116153;29;20215;-78
2023/05/01 02:03:43;;;;;;;;;;;;;;;;;;6119790;28;19918;-79
2023/05/01 02:06:44;;;;;;;;;;;;;;;;;;6242101;28;19925;-79
2023/05/01 02:09:46;;;;;;;;;;;;;;;;;;6243413;28;19932;-78
2023/05/01 02:16:05;;;;;;;;;;;;;;;;;;6240248;28;20188;-79
2023/05/01 02:19:07;;;;;;;;;;;;;;;;;;6239098;28;19929;-78
2023/05/01 02:22:08;;;;;;;;;;;;;;;;;;6227971;28;20109;-78
2023/05/01 02:28:42;;;;;;;;;;;;;;;;;;6233826;28;19937;-78
2023/05/01 02:35:00;;;;;;;;;;;;;;;;;;6238322;28;19925;-78
2023/05/01 02:41:49;;;;;;;;;;;;;;;;;;;;;
2023/05/01 02:45:05;;;;;;;;;;;;;;;;;;6234794;28;20196;-78
2023/05/01 02:48:08;;;;;;;;;;;;;;;;;;6239216;28;19949;-78
2023/05/01 02:51:09;;;;;;;;;;;;;;;;;;6245283;28;19995;-79
2023/05/01 02:54:11;;;;;;;;;;;;;;;;;;6240982;28;19932;-78
2023/05/01 03:08:07;;;;;;;;;;;;;;;;;;6119753;28;19964;-78
2023/05/01 03:11:25;;;;;;;;;;;;;;;;;;6190614;28;20032;-79
2023/05/01 03:18:01;;;;;;;;;;;;;;;;;;6113610;29;19982;-78
2023/05/01 03:21:09;;;;;;;;;;;;;;;;;;6118396;29;19997;-79
2023/05/01 03:24:10;;;;;;;;;;;;;;;;;;6102084;28;19927;-79
2023/05/01 03:27:12;;;;;;;;;;;;;;;;;;6115924;29;19954;-79
2023/05/01 03:30:16;;;;;;;;;;;;;;;;;;6114200;29;19927;-79
2023/05/01 03:33:49;;;;;;;;;;;;;;;;;;6087335;29;20223;-79
2023/05/01 03:36:52;;;;;;;;;;;;;;;;;;6099126;29;19919;-79
2023/05/01 03:39:54;;;;;;;;;;;;;;;;;;6090665;29;19919;-79
2023/05/01 03:42:56;;;;;;;;;;;;;;;;;;6101526;29;19926;-79
2023/05/01 03:45:57;;;;;;;;;;;;;;;;;;6105467;29;19926;-79
2023/05/01 03:49:02;;;;;;;;;;;;;;;;;;6101317;29;19995;-79
2023/05/01 03:52:05;;;;;;;;;;;;;;;;;;6101838;29;19942;-79
2023/05/01 03:55:43;;;;;;;;;;;;;;;;;;6146743;28;19967;-79
2023/05/01 03:58:59;;;;;;;;;;;;;;;;;;6174340;28;19930;-79
2023/05/01 04:02:01;;;;;;;;;;;;;;;;;;6162535;28;19933;-79
2023/05/01 04:05:03;;;;;;;;;;;;;;;;;;6191557;28;19936;-80
2023/05/01 04:08:06;;;;;;;;;;;;;;;;;;6238100;28;19939;-79
2023/05/01 04:11:07;;;;;;;;;;;;;;;;;;6238327;28;19923;-79
2023/05/01 04:14:09;;;;;;;;;;;;;;;;;;6237001;28;19921;-79
2023/05/01 04:17:10;;;;;;;;;;;;;;;;;;6238493;28;19929;-79
2023/05/01 04:20:19;;;;;;;;;;;;;;;;;;6243444;28;19983;-79
2023/05/01 04:23:22;;;;;;;;;;;;;;;;;;6243448;28;19964;-78
2023/05/01 04:26:24;;;;;;;;;;;;;;;;;;6243179;28;19984;-78
2023/05/01 04:29:35;;;;;;;;;;;;;;;;;;6243277;28;19981;-78
2023/05/01 04:32:37;;;;;;;;;;;;;;;;;;6241672;28;20262;-78
2023/05/01 04:35:48;;;;;;;;;;;;;;;;;;6241609;28;19956;-78
2023/05/01 04:38:53;;;;;;;;;;;;;;;;;;6230246;28;19925;-78
2023/05/01 04:41:55;;;;;;;;;;;;;;;;;;6235684;28;19925;-78
2023/05/01 04:44:57;;;;;;;;;;;;;;;;;;6219404;28;19918;-78
2023/05/01 04:47:58;;;;;;;;;;;;;;;;;;6218556;28;19924;-79
2023/05/01 04:51:02;;;;;;;;;;;;;;;;;;6193350;28;19975;-78
2023/05/01 04:54:05;;;;;;;;;;;;;;;;;;6213525;28;19987;-79
2023/05/01 04:57:13;;;;;;;;;;;;;;;;;;6220480;28;19924;-79
2023/05/01 05:00:20;;;;;;;;;;;;;;;;;;6211043;28;19929;-78
2023/05/01 05:03:22;;;;;;;;;;;;;;;;;;6218094;28;19917;-79
2023/05/01 05:10:18;;;;;;;;;;;;;;;;;;6224809;28;19929;-79
2023/05/01 05:13:26;;;;;;;;;;;;;;;;;;6219791;28;19925;-79
2023/05/01 05:16:28;;;;;;;;;;;;;;;;;;6220575;28;20004;-79
2023/05/01 05:19:30;;;;;;;;;;;;;;;;;;6219842;28;19938;-78
2023/05/01 05:22:40;;;;;;;;;;;;;;;;;;6219602;28;20127;-79
2023/05/01 05:25:44;;;;;;;;;;;;;;;;;;6217803;28;19917;-79
2023/05/01 05:32:01;;;;;;;;;;;;;;;;;;6206951;28;20021;-78
2023/05/01 05:35:21;;;;;;;;;;;;;;;;;;6173262;28;20202;-79
2023/05/01 05:45:26;;;;;;;;;;;;;;;;;;6095239;29;19986;-79
2023/05/01 05:48:29;;;;;;;;;;;;;;;;;;6101113;28;20202;-78
2023/05/01 05:51:46;;;;;;;;;;;;;;;;;;6170212;28;20106;-78
2023/05/01 05:54:48;;;;;;;;;;;;;;;;;;6170319;28;19961;-79
2023/05/01 05:57:49;;;;;;;;;;;;;;;;;;6168690;28;19926;-79
2023/05/01 06:00:57;;;;;;;;;;;;;;;;;;6171723;28;19979;-79
2023/05/01 06:03:59;;;;;;;;;;;;;;;;;;6168917;28;19977;-79
2023/05/01 06:29:29;;;;;;;;;;;;;;;;;;6043828;29;19928;-79
2023/05/01 06:33:00;;;;;;;;;;;;;;;;;;;;;
2023/05/01 06:36:02;;;;;;;;;;;;;;;;;;6011772;29;19969;-79
2023/05/01 06:39:14;;;;;;;;;;;;;;;;;;6049361;29;20141;-79
2023/05/01 06:42:28;;;;;;;;;;;;;;;;;;6047357;29;20151;-79
2023/05/01 06:45:29;;;;;;;;;;;;;;;;;;6048768;29;20019;-79
2023/05/01 06:52:09;;;;;;;;;;;;;;;;;;6056938;29;19927;-79
2023/05/01 06:58:28;;;;;;;;;;;;;;;;;;6166131;28;19976;-79
2023/05/01 07:01:30;;;;;;;;;;;;;;;;;;6164119;28;20334;-79
2023/05/01 07:07:49;;;;;;;;;;;;;;;;;;6166677;28;19926;-79
2023/05/01 07:10:52;;;;;;;;;;;;;;;;;;6154841;28;19950;-79
2023/05/01 07:14:09;;;;;;;;;;;;;;;;;;6168043;28;19973;-79
2023/05/01 07:17:10;;;;;;;;;;;;;;;;;;6149116;28;19933;-79
2023/05/01 07:20:24;;;;;;;;;;;;;;;;;;6145568;28;19927;-79
2023/05/01 07:27:23;;;;;;;;;;;;;;;;;;6025521;29;19928;-79
2023/05/01 07:42:12;;;;;;;;;;;;;;;;;;5982600;29;19928;-79
2023/05/01 07:45:38;;;;;;;;;;;;;;;;;;5988082;29;19929;-79
2023/05/01 07:48:43;;;;;;;;;;;;;;;;;;5981758;29;19979;-80
2023/05/01 07:51:44;;;;;;;;;;;;;;;;;;6009624;29;20129;-77
2023/05/01 08:01:54;;;;;;;;;;;;;;;;;;5994552;29;20000;-79
2023/05/01 08:04:57;;;;;;;;;;;;;;;;;;5996595;29;19965;-76
2023/05/01 08:07:59;;;;;;;;;;;;;;;;;;6033325;29;20049;-76
2023/05/01 08:11:00;;;;;;;;;;;;;;;;;;6039910;29;19927;-83
2023/05/01 08:14:02;;;;;;;;;;;;;;;;;;6078139;29;19927;-81
2023/05/01 08:17:04;;;;;;;;;;;;;;;;;;6125449;29;19990;-78
2023/05/01 08:20:21;;;;;;;;;;;;;;;;;;;;;
2023/05/01 08:23:24;;;;;;;;;;;;;;;;;;6209502;28;19964;-79
2023/05/01 08:26:29;;;;;;;;;;;;;;;;;;6219970;28;19933;-79
2023/05/01 08:29:30;;;;;;;;;;;;;;;;;;6214400;28;19993;-77
2023/05/01 08:36:07;;;;;;;;;;;;;;;;;;6133757;29;19926;-77
2023/05/01 08:39:09;;;;;;;;;;;;;;;;;;6123414;28;19932;-79
2023/05/01 08:42:14;;;;;;;;;;;;;;;;;;6134148;29;19926;-77
2023/05/01 08:45:19;;;;;;;;;;;;;;;;;;6137881;29;19930;-77
2023/05/01 08:48:21;;;;;;;;;;;;;;;;;;6161887;28;19969;-77
2023/05/01 08:51:24;;;;;;;;;;;;;;;;;;6160105;28;19968;-77
2023/05/01 08:54:26;;;;;;;;;;;;;;;;;;6160557;28;20072;-78
2023/05/01 08:57:28;;;;;;;;;;;;;;;;;;6162750;28;19926;-77
2023/05/01 09:00:33;;;;;;;;;;;;;;;;;;6161226;28;20107;-77
2023/05/01 09:03:34;;;;;;;;;;;;;;;;;;6158548;28;19918;-77
2023/05/01 09:10:12;;;;;;;;;;;;;;;;;;6181480;28;19921;-77
2023/05/01 09:13:13;;;;;;;;;;;;;;;;;;6244005;28;20209;-78
2023/05/01 09:16:16;;;;;;;;;;;;;;;;;;6243851;28;20228;-77
2023/05/01 09:19:22;;;;;;;;;;;;;;;;;;6244259;28;20766;-77
2023/05/01 09:22:33;;;;;;;;;;;;;;;;;;6241615;28;20108;-77
2023/05/01 09:25:45;;;;;;;;;;;;;;;;;;6232209;28;19964;-77
2023/05/01 09:28:56;;;;;;;;;;;;;;;;;;6241646;28;19917;-77
2023/05/01 09:31:59;;;;;;;;;;;;;;;;;;6241520;28;19918;-76
2023/05/01 09:35:14;;;;;;;;;;;;;;;;;;6239148;28;19926;-77
2023/05/01 09:38:20;;;;;;;;;;;;;;;;;;6240677;28;19936;-77
2023/05/01 09:41:30;;;;;;;;;;;;;;;;;;6229774;28;20126;-77
2023/05/01 09:44:42;;;;;;;;;;;;;;;;;;6239923;28;19940;-77
2023/05/01 09:47:44;;;;;;;;;;;;;;;;;;6244239;28;19932;-77
2023/05/01 09:50:48;;;;;;;;;;;;;;;;;;6235754;28;19940;-77
2023/05/01 09:53:51;;;;;;;;;;;;;;;;;;6242492;28;20201;-77
2023/05/01 09:56:54;;;;;;;;;;;;;;;;;;6243578;28;19925;-76
2023/05/01 10:07:41;;;;;;;;;;;;;;;;;;6135579;28;19926;-79
2023/05/01 10:14:19;;;;;;;;;;;;;;;;;;6081648;29;20157;-79
2023/05/01 10:21:44;;;;;;;;;;;;;;;;;;6135021;28;19954;-79
2023/05/01 10:28:27;;;;;;;;;;;;;;;;;;6037505;29;19915;-77
2023/05/01 10:31:37;;;;;;;;;;;;;;;;;;6035152;29;19956;-76
2023/05/01 10:34:40;;;;;;;;;;;;;;;;;;6036650;29;19978;-78
2023/05/01 10:37:45;;;;;;;;;;;;;;;;;;6031587;29;20117;-79
2023/05/01 10:44:34;;;;;;;;;;;;;;;;;;6000717;29;19939;-77
2023/05/01 10:47:48;;;;;;;;;;;;;;;;;;6068849;29;19926;-76
2023/05/01 10:51:07;;;;;;;;;;;;;;;;;;6102996;29;19926;-77
2023/05/01 10:54:29;;;;;;;;;;;;;;;;;;6085548;29;20293;-77
2023/05/01 10:57:49;;;;;;;;;;;;;;;;;;6100359;29;19933;-79
2023/05/01 11:01:06;;;;;;;;;;;;;;;;;;6149852;28;19933;-77
2023/05/01 11:04:29;;;;;;;;;;;;;;;;;;6168553;28;19918;-75
2023/05/01 11:07:32;;;;;;;;;;;;;;;;;;6168916;28;19933;-77
2023/05/01 11:10:36;;;;;;;;;;;;;;;;;;6167932;28;19940;-77
2023/05/01 11:13:52;;;;;;;;;;;;;;;;;;6163838;28;19926;-77
2023/05/01 11:16:54;;;;;;;;;;;;;;;;;;6185451;28;19972;-77
2023/05/01 11:23:37;;;;;;;;;;;;;;;;;;6238485;28;19979;-76
2023/05/01 11:33:51;;;;;;;;;;;;;;;;;;;;;
2023/05/01 11:36:53;;;;;;;;;;;;;;;;;;6243212;28;19979;-74
2023/05/01 11:39:56;;;;;;;;;;;;;;;;;;6245306;28;19920;-74
2023/05/01 11:43:03;;;;;;;;;;;;;;;;;;6246184;28;19936;-75
2023/05/01 11:46:04;;;;;;;;;;;;;;;;;;6246657;28;19926;-75
2023/05/01 11:49:07;;;;;;;;;;;;;;;;;;6245341;28;19951;-78
2023/05/01 11:52:08;;;;;;;;;;;;;;;;;;6242715;28;19991;-79
2023/05/01 11:55:12;;;;;;;;;;;;;;;;;;6244494;28;19917;-75
2023/05/01 11:58:13;;;;;;;;;;;;;;;;;;6240633;28;19945;-77
2023/05/01 12:01:16;;;;;;;;;;;;;;;;;;6244321;28;20097;-76
2023/05/01 12:04:23;;;;;;;;;;;;;;;;;;6245060;28;19931;-77
2023/05/01 12:07:25;;;;;;;;;;;;;;;;;;6246153;28;20002;-76
2023/05/01 12:10:28;;;;;;;;;;;;;;;;;;6226051;28;20204;-76
2023/05/01 12:13:50;;;;;;;;;;;;;;;;;;;;;
2023/05/01 12:16:52;;;;;;;;;;;;;;;;;;6235853;28;19924;-76
2023/05/01 12:19:54;;;;;;;;;;;;;;;;;;6238341;28;19929;-76
2023/05/01 12:22:56;;;;;;;;;;;;;;;;;;6243585;28;19924;-76
2023/05/01 12:26:36;;;;;;;;;;;;;;;;;;6244209;28;20205;-76
2023/05/01 12:29:46;;;;;;;;;;;;;;;;;;6231204;28;19972;-76
2023/05/01 12:33:22;;;;;;;;;;;;;;;;;;6242360;28;19922;-76
2023/05/01 12:36:26;;;;;;;;;;;;;;;;;;6225094;28;19973;-77
2023/05/01 12:39:48;;;;;;;;;;;;;;;;;;6242297;28;19920;-77
2023/05/01 12:42:54;;;;;;;;;;;;;;;;;;6244059;28;20105;-77
2023/05/01 12:49:48;;;;;;;;;;;;;;;;;;;;;
2023/05/01 12:53:00;;;;;;;;;;;;;;;;;;6238289;28;20618;-78
2023/05/01 12:56:02;;;;;;;;;;;;;;;;;;6241102;28;19995;-76
2023/05/01 12:59:07;;;;;;;;;;;;;;;;;;6245851;28;19917;-74
2023/05/01 13:02:23;;;;;;;;;;;;;;;;;;6241706;28;19921;-76
2023/05/01 13:09:14;;;;;;;;;;;;;;;;;;6213318;28;19917;-76
2023/05/01 13:12:22;;;;;;;;;;;;;;;;;;6217934;28;20847;-75
2023/05/01 13:15:29;;;;;;;;;;;;;;;;;;6244102;28;19925;-75
2023/05/01 13:18:46;;;;;;;;;;;;;;;;;;6232988;28;19971;-75
2023/05/01 13:22:03;;;;;;;;;;;;;;;;;;6240352;28;19924;-76
2023/05/01 13:25:14;;;;;;;;;;;;;;;;;;6243193;28;19925;-76
2023/05/01 13:28:44;;;;;;;;;;;;;;;;;;;;;
2023/05/01 13:31:48;;;;;;;;;;;;;;;;;;6234736;28;19925;-76
2023/05/01 13:34:52;;;;;;;;;;;;;;;;;;6242631;28;20000;-77
2023/05/01 13:37:55;;;;;;;;;;;;;;;;;;6242573;28;20085;-76
2023/05/01 13:40:57;;;;;;;;;;;;;;;;;;6241828;28;20100;-77
2023/05/01 13:44:17;;;;;;;;;;;;;;;;;;6242715;28;20117;-76
2023/05/01 13:47:39;;;;;;;;;;;;;;;;;;6241533;28;19957;-76
2023/05/01 13:50:51;;;;;;;;;;;;;;;;;;6242921;28;20116;-76
2023/05/01 13:53:55;;;;;;;;;;;;;;;;;;6241937;28;19917;-75
2023/05/01 13:56:57;;;;;;;;;;;;;;;;;;6246054;28;20563;-74
2023/05/01 13:59:58;;;;;;;;;;;;;;;;;;6240673;28;19925;-74
2023/05/01 14:03:00;;;;;;;;;;;;;;;;;;6242677;28;19925;-76
2023/05/01 14:06:05;;;;;;;;;;;;;;;;;;6244043;28;19932;-76
2023/05/01 14:12:46;;;;;;;;;;;;;;;;;;6197983;28;19921;-76
2023/05/01 14:15:47;;;;;;;;;;;;;;;;;;6242161;28;19925;-76
2023/05/01 14:18:59;;;;;;;;;;;;;;;;;;;;;
2023/05/01 14:22:19;;;;;;;;;;;;;;;;;;6236977;28;19948;-75
2023/05/01 14:28:42;;;;;;;;;;;;;;;;;;6232333;28;19956;-77
2023/05/01 14:31:54;;;;;;;;;;;;;;;;;;;;;
2023/05/01 14:38:48;;;;;;;;;;;;;;;;;;6238642;28;19917;-75
2023/05/01 14:41:49;;;;;;;;;;;;;;;;;;6220978;28;20276;-75
2023/05/01 14:44:52;;;;;;;;;;;;;;;;;;6241883;28;19921;-74
2023/05/01 14:47:54;;;;;;;;;;;;;;;;;;6238758;28;19925;-75
2023/05/01 14:50:56;;;;;;;;;;;;;;;;;;6239441;28;19929;-75
2023/05/01 14:54:09;;;;;;;;;;;;;;;;;;6239759;28;19959;-75
2023/05/01 14:57:10;;;;;;;;;;;;;;;;;;6242562;28;19924;-74
2023/05/01 15:00:14;;;;;;;;;;;;;;;;;;6238233;28;19925;-75
2023/05/01 15:03:16;;;;;;;;;;;;;;;;;;6228236;28;19929;-75
2023/05/01 15:06:20;;;;;;;;;;;;;;;;;;6238427;28;20292;-75
2023/05/01 15:09:22;;;;;;;;;;;;;;;;;;6238918;28;19929;-76
2023/05/01 15:12:47;;;;;;;;;;;;;;;;;;6239719;28;19925;-76
2023/05/01 15:22:27;;;;;;;;;;;;;;;;;;6225070;28;19925;-76
2023/05/01 15:25:29;;;;;;;;;;;;;;;;;;6240642;28;19932;-75
2023/05/01 15:28:31;;;;;;;;;;;;;;;;;;6230027;28;20193;-76
2023/05/01 15:31:34;;;;;;;;;;;;;;;;;;6240488;28;20173;-76
2023/05/01 15:34:35;;;;;;;;;;;;;;;;;;6240025;28;19929;-76
2023/05/01 15:37:37;;;;;;;;;;;;;;;;;;6237100;28;19932;-77
2023/05/01 15:40:39;;;;;;;;;;;;;;;;;;6241074;28;20204;-77
2023/05/01 15:43:40;;;;;;;;;;;;;;;;;;6240230;28;20001;-76
2023/05/01 15:46:57;;;;;;;;;;;;;;;;;;6236950;28;19994;-76
2023/05/01 15:53:47;;;;;;;;;;;;;;;;;;6243088;28;19917;-76
2023/05/01 15:57:02;;;;;;;;;;;;;;;;;;6241469;28;19917;-76
2023/05/01 16:00:04;;;;;;;;;;;;;;;;;;6238167;28;19956;-76
2023/05/01 16:03:07;;;;;;;;;;;;;;;;;;6241070;28;19936;-76
2023/05/01 16:06:20;;;;;;;;;;;;;;;;;;6238536;28;19924;-76
2023/05/01 16:09:23;;;;;;;;;;;;;;;;;;6242685;28;19931;-76
2023/05/01 16:12:24;;;;;;;;;;;;;;;;;;6239317;28;19985;-76
2023/05/01 16:15:26;;;;;;;;;;;;;;;;;;6243408;28;20306;-75
2023/05/01 16:18:31;;;;;;;;;;;;;;;;;;6244637;28;19921;-76
2023/05/01 16:21:32;;;;;;;;;;;;;;;;;;6243340;28;20124;-76
2023/05/01 16:24:35;;;;;;;;;;;;;;;;;;6245810;28;20133;-76
2023/05/01 16:27:39;;;;;;;;;;;;;;;;;;6228658;28;20032;-76
2023/05/01 16:30:44;;;;;;;;;;;;;;;;;;6230570;28;20377;-76
2023/05/01 16:33:49;;;;;;;;;;;;;;;;;;6243946;28;20133;-75
2023/05/01 16:36:54;;;;;;;;;;;;;;;;;;6238264;28;19999;-76
2023/05/01 16:39:58;;;;;;;;;;;;;;;;;;6244417;28;19939;-75
2023/05/01 16:43:01;;;;;;;;;;;;;;;;;;6245871;28;19924;-76
2023/05/01 16:46:03;;;;;;;;;;;;;;;;;;6244118;28;19983;-76
2023/05/01 16:49:04;;;;;;;;;;;;;;;;;;6242725;28;19928;-76
2023/05/01 16:52:29;;;;;;;;;;;;;;;;;;6240334;28;19928;-76
2023/05/01 16:55:40;;;;;;;;;;;;;;;;;;6243554;28;19924;-76
2023/05/01 16:58:42;;;;;;;;;;;;;;;;;;6232029;28;19928;-76
2023/05/01 17:01:44;;;;;;;;;;;;;;;;;;6241665;28;19940;-76
2023/05/01 17:04:46;;;;;;;;;;;;;;;;;;6242153;28;20023;-75
2023/05/01 17:07:48;;;;;;;;;;;;;;;;;;6245207;28;19917;-75
2023/05/01 17:15:15;;;;;;;;;;;;;;;;;;6099119;29;21048;-75
2023/05/01 17:18:44;;;;;;;;;;;;;;;;;;6094510;29;20018;-76
2023/05/01 17:25:28;;;;;;;;;;;;;;;;;;6063393;29;19920;-76
2023/05/01 17:28:29;;;;;;;;;;;;;;;;;;6103354;29;19919;-76
2023/05/01 17:31:31;;;;;;;;;;;;;;;;;;6102914;29;19938;-76
2023/05/01 17:34:32;;;;;;;;;;;;;;;;;;6103964;29;19957;-76
2023/05/01 17:37:38;;;;;;;;;;;;;;;;;;6142520;28;19953;-75
2023/05/01 17:40:41;;;;;;;;;;;;;;;;;;6168022;28;19919;-76
2023/05/01 17:43:44;;;;;;;;;;;;;;;;;;6170725;28;19965;-75
2023/05/01 17:46:46;;;;;;;;;;;;;;;;;;6241931;28;20023;-77
2023/05/01 17:49:47;;;;;;;;;;;;;;;;;;6248377;28;19929;-77
2023/05/01 17:52:49;;;;;;;;;;;;;;;;;;6243729;28;19931;-75
2023/05/01 17:55:52;;;;;;;;;;;;;;;;;;6241356;28;19925;-75
2023/05/01 17:58:53;;;;;;;;;;;;;;;;;;6244031;28;19932;-74
2023/05/01 18:01:55;;;;;;;;;;;;;;;;;;6240648;28;19917;-76
2023/05/01 18:04:57;;;;;;;;;;;;;;;;;;6240365;28;20000;-76
2023/05/01 18:07:59;;;;;;;;;;;;;;;;;;6244248;28;19997;-75
2023/05/01 18:11:02;;;;;;;;;;;;;;;;;;6239346;28;19996;-75
2023/05/01 18:14:04;;;;;;;;;;;;;;;;;;6239511;28;19925;-75
2023/05/01 18:17:05;;;;;;;;;;;;;;;;;;6238935;28;20114;-75
2023/05/01 18:20:07;;;;;;;;;;;;;;;;;;6239632;28;19965;-75
2023/05/01 18:23:12;;;;;;;;;;;;;;;;;;6238513;28;20236;-75
2023/05/01 18:26:15;;;;;;;;;;;;;;;;;;6244107;28;19917;-75
2023/05/01 18:29:18;;;;;;;;;;;;;;;;;;6242489;28;19917;-74
2023/05/01 18:32:20;;;;;;;;;;;;;;;;;;6243139;28;20233;-74
2023/05/01 18:35:22;;;;;;;;;;;;;;;;;;6247395;28;19959;-73
2023/05/01 18:38:23;;;;;;;;;;;;;;;;;;6246477;28;19925;-75
2023/05/01 18:41:26;;;;;;;;;;;;;;;;;;6247692;28;20157;-76
2023/05/01 18:44:28;;;;;;;;;;;;;;;;;;6245814;28;19924;-75
2023/05/01 18:47:31;;;;;;;;;;;;;;;;;;6245905;28;19996;-75
2023/05/01 18:50:32;;;;;;;;;;;;;;;;;;6246476;28;20086;-75
2023/05/01 18:53:34;;;;;;;;;;;;;;;;;;6234442;28;19929;-74
2023/05/01 18:56:37;;;;;;;;;;;;;;;;;;6244922;28;19961;-74
2023/05/01 18:59:38;;;;;;;;;;;;;;;;;;6247580;28;19924;-75
2023/05/01 19:02:40;;;;;;;;;;;;;;;;;;6246950;28;21228;-76
2023/05/01 19:05:42;;;;;;;;;;;;;;;;;;6249016;28;19931;-74
2023/05/01 19:08:44;;;;;;;;;;;;;;;;;;6246202;28;19995;-74
2023/05/01 19:11:46;;;;;;;;;;;;;;;;;;6245141;28;19917;-76
2023/05/01 19:14:48;;;;;;;;;;;;;;;;;;6247690;28;19917;-73
2023/05/01 19:17:49;;;;;;;;;;;;;;;;;;6244845;28;20132;-76
2023/05/01 19:20:51;;;;;;;;;;;;;;;;;;6244669;28;20094;-76
2023/05/01 19:23:55;;;;;;;;;;;;;;;;;;6244742;28;20268;-75
2023/05/01 19:26:58;;;;;;;;;;;;;;;;;;6245984;28;19995;-74
2023/05/01 19:29:59;;;;;;;;;;;;;;;;;;6245493;28;19925;-74
2023/05/01 19:33:01;;;;;;;;;;;;;;;;;;6247977;28;19925;-75
2023/05/01 19:36:03;;;;;;;;;;;;;;;;;;6243674;28;19925;-74
2023/05/01 19:39:04;;;;;;;;;;;;;;;;;;6239212;28;19925;-76
2023/05/01 19:42:07;;;;;;;;;;;;;;;;;;6240935;28;19931;-76
2023/05/01 19:45:09;;;;;;;;;;;;;;;;;;6239718;28;19917;-76
2023/05/01 19:48:10;;;;;;;;;;;;;;;;;;6234766;28;19917;-78
2023/05/01 19:51:12;;;;;;;;;;;;;;;;;;6240833;28;19988;-78
2023/05/01 19:54:13;;;;;;;;;;;;;;;;;;6241288;28;19925;-78
2023/05/01 19:57:16;;;;;;;;;;;;;;;;;;6244983;28;20646;-77
2023/05/01 20:00:18;;;;;;;;;;;;;;;;;;6244832;28;20193;-77
2023/05/01 20:03:19;;;;;;;;;;;;;;;;;;6246976;28;19925;-78
2023/05/01 20:06:21;;;;;;;;;;;;;;;;;;6245118;28;19968;-77
2023/05/01 20:09:22;;;;;;;;;;;;;;;;;;6243984;28;19924;-77
2023/05/01 20:12:26;;;;;;;;;;;;;;;;;;6245584;28;19923;-77
2023/05/01 20:15:28;;;;;;;;;;;;;;;;;;6243913;28;20260;-77
2023/05/01 20:18:30;;;;;;;;;;;;;;;;;;6244456;28;19932;-78
2023/05/01 20:21:31;;;;;;;;;;;;;;;;;;6243208;28;19947;-78
2023/05/01 20:24:33;;;;;;;;;;;;;;;;;;6241942;28;19971;-77
2023/05/01 20:27:35;;;;;;;;;;;;;;;;;;6246410;28;19921;-78
2023/05/01 20:30:38;;;;;;;;;;;;;;;;;;6240299;28;19930;-78
2023/05/01 20:33:39;;;;;;;;;;;;;;;;;;6242456;28;19976;-78
2023/05/01 20:36:41;;;;;;;;;;;;;;;;;;6243933;28;20193;-78
2023/05/01 20:39:42;;;;;;;;;;;;;;;;;;6245963;28;19917;-78
2023/05/01 20:42:45;;;;;;;;;;;;;;;;;;6247658;28;19973;-78
2023/05/01 20:45:47;;;;;;;;;;;;;;;;;;6244803;28;19925;-78
2023/05/01 20:48:48;;;;;;;;;;;;;;;;;;6246892;28;19929;-78
2023/05/01 20:51:50;;;;;;;;;;;;;;;;;;6246503;28;20237;-79
2023/05/01 20:54:51;;;;;;;;;;;;;;;;;;6245468;28;20032;-78
2023/05/01 20:58:08;;;;;;;;;;;;;;;;;;6241516;28;19924;-78
2023/05/01 21:01:09;;;;;;;;;;;;;;;;;;6247758;28;19917;-79
2023/05/01 21:04:11;;;;;;;;;;;;;;;;;;6247850;28;19987;-78
2023/05/01 21:07:13;;;;;;;;;;;;;;;;;;6246702;28;19917;-77
2023/05/01 21:10:15;;;;;;;;;;;;;;;;;;6248897;28;20558;-78
2023/05/01 21:13:19;;;;;;;;;;;;;;;;;;6247475;28;19917;-77
2023/05/01 21:16:21;;;;;;;;;;;;;;;;;;6247769;28;19917;-78
2023/05/01 21:19:22;;;;;;;;;;;;;;;;;;6249038;28;21085;-79
2023/05/01 21:22:24;;;;;;;;;;;;;;;;;;6246263;28;19925;-79
2023/05/01 21:25:26;;;;;;;;;;;;;;;;;;6253378;28;19917;-78
2023/05/01 21:28:29;;;;;;;;;;;;;;;;;;6227237;28;19926;-77
2023/05/01 21:31:31;;;;;;;;;;;;;;;;;;6249801;28;20627;-76
2023/05/01 21:34:32;;;;;;;;;;;;;;;;;;6244967;28;19935;-76
2023/05/01 21:37:34;;;;;;;;;;;;;;;;;;6247280;28;19925;-76
2023/05/01 21:40:36;;;;;;;;;;;;;;;;;;6248557;28;20137;-75
2023/05/01 21:43:39;;;;;;;;;;;;;;;;;;6248578;28;19921;-76
2023/05/01 21:46:40;;;;;;;;;;;;;;;;;;6245309;28;19963;-75
2023/05/01 21:49:41;;;;;;;;;;;;;;;;;;6244380;28;20201;-75
2023/05/01 21:52:44;;;;;;;;;;;;;;;;;;6240523;28;19917;-74
2023/05/01 21:55:45;;;;;;;;;;;;;;;;;;6242747;28;19917;-75
2023/05/01 21:58:48;;;;;;;;;;;;;;;;;;6244845;28;19929;-75
2023/05/01 22:01:50;;;;;;;;;;;;;;;;;;6248052;28;19929;-74
2023/05/01 22:04:53;;;;;;;;;;;;;;;;;;6250859;28;19917;-75
2023/05/01 22:07:55;;;;;;;;;;;;;;;;;;6241816;28;19948;-74
2023/05/01 22:10:57;;;;;;;;;;;;;;;;;;6241849;28;19925;-75
2023/05/01 22:14:00;;;;;;;;;;;;;;;;;;6241098;28;19925;-75
2023/05/01 22:17:02;;;;;;;;;;;;;;;;;;6244373;28;19925;-74
2023/05/01 22:20:04;;;;;;;;;;;;;;;;;;6240524;28;19925;-75
2023/05/01 22:23:06;;;;;;;;;;;;;;;;;;6242998;28;19931;-75
2023/05/01 22:26:08;;;;;;;;;;;;;;;;;;6242562;28;19972;-75
2023/05/01 22:29:11;;;;;;;;;;;;;;;;;;6242092;28;20780;-76
2023/05/01 22:32:12;;;;;;;;;;;;;;;;;;6241340;28;19925;-76
2023/05/01 22:35:14;;;;;;;;;;;;;;;;;;6241449;28;19947;-75
2023/05/01 22:38:15;;;;;;;;;;;;;;;;;;6240495;28;19935;-75
2023/05/01 22:41:17;;;;;;;;;;;;;;;;;;6239920;28;19923;-73
2023/05/01 22:44:30;;;;;;;;;;;;;;;;;;6242910;28;19933;-75
2023/05/01 22:51:16;;;;;;;;;;;;;;;;;;6231169;28;19926;-74
2023/05/01 22:54:18;;;;;;;;;;;;;;;;;;6241040;28;20137;-75
2023/05/01 23:00:59;;;;;;;;;;;;;;;;;;6174423;28;20213;-75
2023/05/01 23:04:00;;;;;;;;;;;;;;;;;;6160890;28;19972;-76
2023/05/01 23:07:02;;;;;;;;;;;;;;;;;;6175099;28;20264;-76
2023/05/01 23:10:04;;;;;;;;;;;;;;;;;;6170797;28;19925;-75
2023/05/01 23:16:40;;;;;;;;;;;;;;;;;;6163551;28;20225;-76
2023/05/01 23:19:57;;;;;;;;;;;;;;;;;;6165030;28;19993;-75
2023/05/01 23:27:17;;;;;;;;;;;;;;;;;;6169609;28;20217;-75
2023/05/01 23:30:22;;;;;;;;;;;;;;;;;;6188357;28;19964;-75
2023/05/01 23:33:26;;;;;;;;;;;;;;;;;;6231018;28;20026;-75
2023/05/01 23:36:28;;;;;;;;;;;;;;;;;;6236625;28;19924;-77
2023/05/01 23:39:31;;;;;;;;;;;;;;;;;;6246345;28;19924;-77
2023/05/01 23:42:33;;;;;;;;;;;;;;;;;;6239716;28;20008;-76
2023/05/01 23:45:44;;;;;;;;;;;;;;;;;;6241344;28;19928;-77
2023/05/01 23:52:30;;;;;;;;;;;;;;;;;;6169013;28;19925;-75
2023/05/01 23:55:32;;;;;;;;;;;;;;;;;;6244439;28;19918;-75
2023/05/01 23:58:34;;;;;;;;;;;;;;;;;;6236105;28;20232;-75
